createdAt,value
2023-03-29T00:02:25.240Z,11.21
2023-03-29T00:04:51.779Z,11.16
2023-03-29T00:07:18.262Z,11.10
2023-03-29T00:09:44.766Z,11.24
2023-03-29T00:12:12.361Z,11.29
2023-03-29T00:14:38.862Z,11.12
2023-03-29T00:17:05.718Z,10.88
2023-03-29T00:19:32.353Z,10.55
2023-03-29T00:21:58.830Z,10.53
2023-03-29T00:24:25.327Z,10.44
2023-03-29T00:26:51.966Z,10.47
2023-03-29T00:29:18.471Z,10.58
2023-03-29T00:31:44.977Z,10.57
2023-03-29T00:34:11.664Z,10.42
2023-03-29T00:36:38.138Z,10.55
2023-03-29T00:39:04.711Z,10.73
2023-03-29T00:41:31.310Z,10.93
2023-03-29T00:43:59.952Z,10.81
2023-03-29T00:46:28.036Z,10.52
2023-03-29T00:48:58.350Z,10.54
2023-03-29T00:51:25.136Z,10.56
2023-03-29T00:53:56.404Z,10.36
2023-03-29T00:56:43.789Z,10.33
2023-03-29T00:59:13.778Z,10.45
2023-03-29T01:01:48.334Z,10.55
2023-03-29T01:04:23.872Z,10.37
2023-03-29T01:06:57.177Z,10.52
2023-03-29T01:09:24.740Z,10.33
2023-03-29T01:11:54.317Z,10.20
2023-03-29T01:14:31.938Z,10.55
2023-03-29T01:16:58.471Z,10.45
2023-03-29T01:19:28.622Z,10.51
2023-03-29T01:22:05.282Z,10.76
2023-03-29T01:24:46.288Z,10.74
2023-03-29T01:27:19.506Z,10.79
2023-03-29T01:29:50.769Z,10.50
2023-03-29T01:32:24.620Z,10.56
2023-03-29T01:35:00.846Z,10.36
2023-03-29T01:37:32.071Z,10.53
2023-03-29T01:39:58.533Z,10.71
2023-03-29T01:42:46.165Z,10.97
2023-03-29T01:45:25.271Z,11.01
2023-03-29T01:48:01.341Z,11.03
2023-03-29T01:50:53.006Z,11.02
2023-03-29T01:53:34.234Z,11.10
2023-03-29T01:56:06.669Z,10.75
2023-03-29T01:58:36.729Z,10.63
2023-03-29T02:01:04.358Z,10.53
2023-03-29T02:03:32.950Z,10.62
2023-03-29T02:06:00.239Z,10.70
2023-03-29T02:09:40.981Z,10.78
2023-03-29T02:12:08.444Z,10.94
2023-03-29T02:15:19.836Z,10.79
2023-03-29T02:17:48.157Z,10.68
2023-03-29T02:20:32.488Z,10.88
2023-03-29T02:23:07.192Z,10.94
2023-03-29T02:25:34.427Z,11.05
2023-03-29T02:28:01.524Z,10.79
2023-03-29T02:30:32.816Z,10.93
2023-03-29T02:33:06.736Z,10.98
2023-03-29T02:35:36.435Z,10.76
2023-03-29T02:38:06.435Z,10.60
2023-03-29T02:40:33.255Z,10.81
2023-03-29T02:43:01.857Z,10.84
2023-03-29T02:45:28.947Z,10.54
2023-03-29T02:47:57.538Z,10.54
2023-03-29T02:50:26.029Z,10.63
2023-03-29T02:53:01.948Z,10.88
2023-03-29T02:55:29.430Z,10.94
2023-03-29T02:57:55.941Z,11.03
2023-03-29T03:00:22.593Z,11.14
2023-03-29T03:02:49.251Z,11.29
2023-03-29T03:05:16.209Z,11.26
2023-03-29T03:07:42.679Z,11.34
2023-03-29T03:10:10.047Z,11.44
2023-03-29T03:12:36.870Z,11.14
2023-03-29T03:15:04.972Z,10.96
2023-03-29T03:17:32.384Z,11.17
2023-03-29T03:19:59.227Z,10.91
2023-03-29T03:22:26.182Z,10.61
2023-03-29T03:24:52.690Z,10.74
2023-03-29T03:27:19.281Z,10.94
2023-03-29T03:29:45.767Z,11.14
2023-03-29T03:32:12.273Z,11.28
2023-03-29T03:34:38.989Z,11.33
2023-03-29T03:37:05.474Z,11.27
2023-03-29T03:39:31.960Z,11.38
2023-03-29T03:41:59.467Z,11.26
2023-03-29T03:44:25.953Z,11.25
2023-03-29T03:46:52.971Z,10.86
2023-03-29T03:49:19.432Z,10.72
2023-03-29T03:51:45.918Z,10.71
2023-03-29T03:54:12.524Z,10.54
2023-03-29T03:56:39.029Z,10.59
2023-03-29T03:59:08.646Z,10.86
2023-03-29T04:01:35.099Z,10.97
2023-03-29T04:04:01.783Z,10.69
2023-03-29T04:06:28.355Z,10.75
2023-03-29T04:08:54.876Z,10.87
2023-03-29T04:11:21.348Z,10.96
2023-03-29T04:13:47.872Z,10.89
2023-03-29T04:16:14.418Z,10.74
2023-03-29T04:18:41.018Z,10.59
2023-03-29T04:21:07.831Z,10.54
2023-03-29T04:23:36.051Z,10.15
2023-03-29T04:26:02.519Z,10.21
2023-03-29T04:28:28.999Z,10.23
2023-03-29T04:30:55.485Z,10.29
2023-03-29T04:33:22.025Z,10.30
2023-03-29T04:35:48.633Z,10.47
2023-03-29T04:38:15.124Z,10.54
2023-03-29T04:40:41.702Z,10.53
2023-03-29T04:43:08.212Z,10.60
2023-03-29T04:45:34.829Z,10.55
2023-03-29T04:48:01.327Z,10.58
2023-03-29T04:50:28.161Z,10.58
2023-03-29T04:52:54.652Z,10.51
2023-03-29T04:55:21.145Z,10.54
2023-03-29T04:57:47.613Z,10.73
2023-03-29T05:00:14.615Z,10.77
2023-03-29T05:02:43.041Z,10.77
2023-03-29T05:05:10.550Z,10.62
2023-03-29T05:07:37.377Z,10.65
2023-03-29T05:10:04.330Z,10.52
2023-03-29T05:12:30.918Z,10.31
2023-03-29T05:14:57.440Z,10.39
2023-03-29T05:17:24.078Z,10.55
2023-03-29T05:19:52.767Z,10.49
2023-03-29T05:22:19.361Z,10.68
2023-03-29T05:24:45.857Z,10.54
2023-03-29T05:27:12.429Z,10.50
2023-03-29T05:29:39.000Z,10.61
2023-03-29T05:32:05.672Z,10.83
2023-03-29T05:34:32.184Z,10.95
2023-03-29T05:36:58.731Z,10.94
2023-03-29T05:39:25.268Z,11.03
2023-03-29T05:41:51.750Z,11.10
2023-03-29T05:44:18.298Z,11.22
2023-03-29T05:46:44.767Z,11.20
2023-03-29T05:49:11.328Z,11.15
2023-03-29T05:51:37.979Z,11.31
2023-03-29T05:54:04.733Z,11.20
2023-03-29T05:56:31.265Z,11.28
2023-03-29T05:58:57.763Z,11.35
2023-03-29T06:01:24.362Z,11.50
2023-03-29T06:03:51.928Z,11.43
2023-03-29T06:06:18.573Z,11.54
2023-03-29T06:08:45.252Z,11.76
2023-03-29T06:11:12.557Z,11.80
2023-03-29T06:13:39.252Z,11.99
2023-03-29T06:16:08.834Z,12.17
2023-03-29T06:18:35.625Z,12.22
2023-03-29T06:21:02.430Z,12.13
2023-03-29T06:23:29.488Z,12.37
2023-03-29T06:25:56.193Z,12.42
2023-03-29T06:28:23.370Z,12.55
2023-03-29T06:30:50.242Z,12.79
2023-03-29T06:33:16.954Z,12.89
2023-03-29T06:35:45.750Z,13.02
2023-03-29T06:38:12.311Z,13.10
2023-03-29T06:40:38.820Z,13.17
2023-03-29T06:43:05.814Z,13.16
2023-03-29T06:45:34.676Z,13.13
2023-03-29T06:48:01.852Z,13.31
2023-03-29T06:50:28.824Z,13.34
2023-03-29T06:52:55.423Z,13.46
2023-03-29T06:55:22.023Z,13.49
2023-03-29T06:57:48.616Z,13.55
2023-03-29T07:00:15.822Z,13.42
2023-03-29T07:02:42.522Z,13.66
2023-03-29T07:05:09.861Z,13.89
2023-03-29T07:07:36.401Z,13.82
2023-03-29T07:10:02.881Z,13.70
2023-03-29T07:12:29.708Z,13.86
2023-03-29T07:14:56.234Z,13.89
2023-03-29T07:17:22.841Z,14.07
2023-03-29T07:19:49.385Z,13.91
2023-03-29T07:22:15.966Z,13.95
2023-03-29T07:24:42.762Z,14.11
2023-03-29T07:27:09.851Z,13.63
2023-03-29T07:29:36.413Z,13.19
2023-03-29T07:32:02.976Z,13.24
2023-03-29T07:34:29.446Z,13.39
2023-03-29T07:36:55.925Z,13.73
2023-03-29T07:39:22.446Z,14.04
2023-03-29T07:41:48.999Z,14.29
2023-03-29T07:44:15.497Z,14.33
2023-03-29T07:46:42.003Z,14.39
2023-03-29T07:49:08.535Z,14.51
2023-03-29T07:51:35.066Z,14.78
2023-03-29T07:54:01.535Z,15.18
2023-03-29T07:56:28.011Z,15.15
2023-03-29T07:58:54.498Z,15.60
2023-03-29T08:01:21.085Z,16.04
2023-03-29T08:03:48.359Z,15.95
2023-03-29T08:06:14.963Z,16.21
2023-03-29T08:08:41.528Z,15.79
2023-03-29T08:11:08.034Z,15.97
2023-03-29T08:13:34.526Z,15.85
2023-03-29T08:16:01.099Z,16.07
2023-03-29T08:18:27.706Z,16.34
2023-03-29T08:20:54.207Z,16.35
2023-03-29T08:23:20.706Z,16.36
2023-03-29T08:25:47.196Z,16.39
2023-03-29T08:28:13.729Z,16.09
2023-03-29T08:30:40.317Z,15.66
2023-03-29T08:33:06.859Z,15.54
2023-03-29T08:35:33.395Z,15.53
2023-03-29T08:38:00.055Z,15.60
2023-03-29T08:40:28.190Z,15.61
2023-03-29T08:43:05.633Z,15.93
2023-03-29T08:45:44.732Z,16.26
2023-03-29T08:48:23.813Z,16.88
2023-03-29T08:50:53.076Z,17.12
2023-03-29T08:53:19.522Z,17.17
2023-03-29T08:55:47.947Z,17.25
2023-03-29T08:58:17.942Z,17.54
2023-03-29T09:00:46.071Z,17.56
2023-03-29T09:03:29.100Z,17.42
2023-03-29T09:06:04.770Z,17.58
2023-03-29T09:08:31.369Z,17.39
2023-03-29T09:11:09.676Z,17.28
2023-03-29T09:13:46.240Z,17.29
2023-03-29T09:16:18.745Z,17.58
2023-03-29T09:19:06.868Z,17.33
2023-03-29T09:21:33.373Z,17.36
2023-03-29T09:24:18.370Z,17.28
2023-03-29T09:26:48.782Z,17.28
2023-03-29T09:29:47.697Z,17.82
2023-03-29T09:32:31.925Z,17.55
2023-03-29T09:35:25.395Z,17.28
2023-03-29T09:37:54.236Z,17.19
2023-03-29T09:40:25.169Z,17.32
2023-03-29T09:42:52.877Z,17.24
2023-03-29T09:45:19.362Z,16.73
2023-03-29T09:47:58.407Z,16.71
2023-03-29T09:50:32.464Z,17.31
2023-03-29T09:52:59.402Z,17.66
2023-03-29T09:55:28.488Z,17.44
2023-03-29T09:57:58.792Z,17.25
2023-03-29T10:00:25.612Z,17.30
2023-03-29T10:02:57.370Z,17.47
2023-03-29T10:05:25.619Z,17.70
2023-03-29T10:07:54.481Z,17.57
2023-03-29T10:10:22.959Z,17.89
2023-03-29T10:12:51.423Z,17.86
2023-03-29T10:15:29.272Z,17.61
2023-03-29T10:18:07.484Z,17.93
2023-03-29T10:20:39.365Z,17.80
2023-03-29T10:23:08.131Z,17.87
2023-03-29T10:28:06.246Z,18.43
2023-03-29T10:30:35.452Z,18.37
2023-03-29T10:33:02.130Z,18.54
2023-03-29T10:35:39.376Z,18.64
2023-03-29T10:38:11.500Z,18.63
2023-03-29T10:40:48.264Z,18.27
2023-03-29T10:43:17.792Z,17.93
2023-03-29T10:45:48.381Z,17.56
2023-03-29T10:48:16.721Z,17.67
2023-03-29T10:50:48.873Z,17.77
2023-03-29T10:53:26.597Z,17.31
2023-03-29T10:56:03.002Z,16.81
2023-03-29T10:58:54.890Z,16.34
2023-03-29T11:01:31.865Z,15.98
2023-03-29T11:04:01.405Z,15.47
2023-03-29T11:06:34.978Z,14.97
2023-03-29T11:09:07.129Z,15.24
2023-03-29T11:12:08.283Z,15.16
2023-03-29T11:14:47.457Z,15.08
2023-03-29T11:17:31.271Z,15.53
2023-03-29T11:20:06.191Z,15.77
2023-03-29T11:22:44.522Z,16.03
2023-03-29T11:25:17.041Z,16.36
2023-03-29T11:28:20.544Z,16.25
2023-03-29T11:30:53.345Z,16.25
2023-03-29T11:33:32.275Z,16.17
2023-03-29T11:36:04.998Z,16.45
2023-03-29T11:38:31.504Z,16.35
2023-03-29T11:41:01.280Z,15.91
2023-03-29T11:43:32.972Z,15.64
2023-03-29T11:46:34.842Z,15.78
2023-03-29T11:49:06.409Z,16.15
2023-03-29T11:51:38.055Z,16.44
2023-03-29T11:54:15.291Z,16.95
2023-03-29T11:56:47.754Z,17.34
2023-03-29T11:59:35.905Z,17.70
2023-03-29T12:02:29.488Z,17.62
2023-03-29T12:04:59.019Z,17.43
2023-03-29T12:07:44.067Z,17.43
2023-03-29T12:10:19.675Z,17.03
2023-03-29T12:12:55.385Z,16.82
2023-03-29T12:15:24.605Z,16.96
2023-03-29T12:18:06.382Z,17.22
2023-03-29T12:20:36.311Z,17.09
2023-03-29T12:23:02.747Z,16.73
2023-03-29T12:25:59.618Z,16.94
2023-03-29T12:28:51.030Z,17.13
2023-03-29T12:31:23.508Z,17.38
2023-03-29T12:34:01.899Z,17.49
2023-03-29T12:37:14.878Z,17.92
2023-03-29T12:39:41.473Z,18.36
2023-03-29T12:42:19.586Z,18.88
2023-03-29T12:44:51.060Z,19.03
2023-03-29T12:47:21.094Z,18.59
2023-03-29T12:49:47.776Z,18.73
2023-03-29T12:52:33.949Z,19.23
2023-03-29T12:55:41.772Z,19.40
2023-03-29T12:58:24.626Z,19.66
2023-03-29T13:01:06.005Z,19.45
2023-03-29T13:03:47.637Z,19.62
2023-03-29T13:06:34.678Z,19.67
2023-03-29T13:09:22.789Z,19.97
2023-03-29T13:11:57.521Z,20.10
2023-03-29T13:14:27.729Z,20.00
2023-03-29T13:17:15.591Z,20.15
2023-03-29T13:19:59.746Z,20.08
2023-03-29T13:22:53.329Z,19.70
2023-03-29T13:25:41.578Z,19.55
2023-03-29T13:28:30.180Z,19.84
2023-03-29T13:31:02.982Z,19.53
2023-03-29T13:34:02.131Z,19.63
2023-03-29T13:37:06.257Z,19.69
2023-03-29T13:39:34.836Z,19.53
2023-03-29T13:42:23.166Z,19.59
2023-03-29T13:44:51.662Z,19.56
2023-03-29T13:47:37.198Z,19.87
2023-03-29T13:50:09.971Z,20.10
2023-03-29T13:52:41.178Z,20.07
2023-03-29T13:55:14.788Z,20.00
2023-03-29T13:57:51.706Z,19.95
2023-03-29T14:00:18.844Z,20.07
2023-03-29T14:02:58.237Z,20.49
2023-03-29T14:05:32.207Z,20.57
2023-03-29T14:08:08.140Z,20.54
2023-03-29T14:10:41.076Z,20.60
2023-03-29T14:13:12.658Z,20.69
2023-03-29T14:16:03.416Z,20.68
2023-03-29T14:18:36.539Z,20.27
2023-03-29T14:21:03.506Z,20.42
2023-03-29T14:23:32.532Z,20.65
2023-03-29T14:26:21.498Z,20.80
2023-03-29T14:28:49.415Z,20.74
2023-03-29T14:31:45.178Z,20.66
2023-03-29T14:34:14.701Z,20.75
2023-03-29T14:36:47.553Z,20.50
2023-03-29T14:39:17.627Z,20.48
2023-03-29T14:41:55.734Z,20.40
2023-03-29T14:44:25.148Z,20.46
2023-03-29T14:46:51.876Z,20.48
2023-03-29T14:49:19.741Z,20.45
2023-03-29T14:51:46.807Z,20.67
2023-03-29T14:54:27.865Z,20.68
2023-03-29T14:56:55.144Z,20.69
2023-03-29T14:59:42.536Z,20.69
2023-03-29T15:02:28.812Z,20.60
2023-03-29T15:05:03.254Z,20.58
2023-03-29T15:07:30.784Z,20.61
2023-03-29T15:09:58.371Z,20.67
2023-03-29T15:12:25.419Z,20.79
2023-03-29T15:14:52.624Z,20.75
2023-03-29T15:17:47.633Z,20.88
2023-03-29T15:20:29.865Z,20.88
2023-03-29T15:23:07.919Z,20.97
2023-03-29T15:25:42.159Z,20.85
2023-03-29T15:28:24.890Z,20.86
2023-03-29T15:31:04.737Z,20.72
2023-03-29T15:33:36.971Z,20.68
2023-03-29T15:36:05.283Z,20.78
2023-03-29T15:38:43.246Z,20.79
2023-03-29T15:41:12.869Z,20.69
2023-03-29T15:43:39.399Z,20.68
2023-03-29T15:46:06.156Z,20.61
2023-03-29T15:48:32.798Z,20.57
2023-03-29T15:51:01.942Z,20.26
2023-03-29T15:53:30.383Z,20.02
2023-03-29T15:56:00.352Z,20.15
2023-03-29T15:58:29.727Z,20.22
2023-03-29T16:01:00.210Z,20.30
2023-03-29T16:03:26.735Z,20.28
2023-03-29T16:05:53.520Z,20.23
2023-03-29T16:08:44.531Z,20.16
2023-03-29T16:11:11.087Z,20.28
2023-03-29T16:16:18.994Z,19.97
2023-03-29T16:18:47.778Z,19.89
2023-03-29T16:21:16.413Z,19.74
2023-03-29T16:23:45.924Z,19.71
2023-03-29T16:26:13.971Z,19.75
2023-03-29T16:28:43.709Z,19.65
2023-03-29T16:31:11.986Z,19.56
2023-03-29T16:33:39.527Z,19.58
2023-03-29T16:39:15.822Z,19.24
2023-03-29T16:41:43.106Z,19.15
2023-03-29T16:44:15.609Z,18.93
2023-03-29T16:46:42.176Z,18.85
2023-03-29T16:49:12.779Z,18.61
2023-03-29T16:51:39.371Z,18.66
2023-03-29T16:54:06.120Z,18.55
2023-03-29T16:56:32.629Z,18.52
2023-03-29T16:58:59.117Z,18.39
2023-03-29T17:01:25.734Z,18.47
2023-03-29T17:03:52.299Z,18.41
2023-03-29T17:06:18.869Z,18.23
2023-03-29T17:08:45.465Z,18.21
2023-03-29T17:11:12.044Z,18.29
2023-03-29T17:13:38.598Z,17.72
2023-03-29T17:16:05.759Z,17.66
2023-03-29T17:18:32.537Z,17.86
2023-03-29T17:20:59.128Z,17.99
2023-03-29T17:23:28.547Z,17.90
2023-03-29T17:25:55.438Z,17.97
2023-03-29T17:28:22.733Z,17.87
2023-03-29T17:30:49.381Z,17.55
2023-03-29T17:33:16.303Z,17.21
2023-03-29T17:35:44.143Z,17.07
2023-03-29T17:38:11.440Z,17.22
2023-03-29T17:40:38.182Z,17.38
2023-03-29T17:43:04.905Z,17.49
2023-03-29T17:45:31.407Z,17.58
2023-03-29T17:47:58.412Z,17.52
2023-03-29T17:50:25.153Z,17.33
2023-03-29T17:52:51.714Z,17.53
2023-03-29T17:55:18.548Z,17.62
2023-03-29T17:57:45.086Z,17.57
2023-03-29T18:00:13.479Z,17.32
2023-03-29T18:02:40.891Z,17.18
2023-03-29T18:05:09.541Z,17.16
2023-03-29T18:07:38.314Z,17.22
2023-03-29T18:10:05.280Z,17.17
2023-03-29T18:13:31.434Z,17.28
2023-03-29T18:15:58.599Z,17.28
2023-03-29T18:18:25.272Z,17.37
2023-03-29T18:20:51.937Z,17.36
2023-03-29T18:24:05.991Z,17.34
2023-03-29T18:26:32.786Z,17.12
2023-03-29T18:28:59.343Z,16.99
2023-03-29T18:31:25.976Z,17.05
2023-03-29T18:37:10.525Z,16.76
2023-03-29T18:42:43.240Z,16.46
2023-03-29T18:45:10.284Z,16.60
2023-03-29T18:47:37.949Z,16.71
2023-03-29T18:50:04.890Z,16.80
2023-03-29T18:52:31.408Z,16.83
2023-03-29T18:54:57.926Z,16.70
2023-03-29T18:57:24.534Z,16.79
2023-03-29T18:59:51.301Z,16.88
2023-03-29T19:02:17.958Z,16.91
2023-03-29T19:04:44.586Z,16.77
2023-03-29T19:07:11.251Z,16.72
2023-03-29T19:09:37.761Z,16.77
2023-03-29T19:12:06.918Z,16.55
2023-03-29T19:14:33.534Z,16.63
2023-03-29T19:17:00.058Z,16.51
2023-03-29T19:19:27.750Z,16.41
2023-03-29T19:21:54.320Z,16.41
2023-03-29T19:24:20.945Z,16.41
2023-03-29T19:26:47.565Z,16.23
2023-03-29T19:29:14.066Z,16.14
2023-03-29T19:31:49.974Z,16.22
2023-03-29T19:34:16.561Z,16.24
2023-03-29T19:37:06.134Z,15.76
2023-03-29T19:39:32.681Z,15.84
2023-03-29T19:41:59.293Z,16.01
2023-03-29T19:44:25.786Z,15.93
2023-03-29T19:46:52.400Z,15.81
2023-03-29T19:49:18.973Z,15.91
2023-03-29T19:51:45.610Z,15.96
2023-03-29T19:54:14.104Z,15.98
2023-03-29T19:56:40.872Z,16.20
2023-03-29T19:59:07.476Z,16.20
2023-03-29T20:01:34.121Z,16.43
2023-03-29T20:04:00.716Z,16.23
2023-03-29T20:09:26.622Z,16.13
2023-03-29T20:11:53.300Z,15.88
2023-03-29T20:14:20.113Z,16.01
2023-03-29T20:16:52.237Z,16.32
2023-03-29T20:19:19.993Z,16.26
2023-03-29T20:24:37.509Z,16.28
2023-03-29T20:27:05.057Z,16.20
2023-03-29T20:29:31.816Z,16.17
2023-03-29T20:31:58.795Z,16.02
2023-03-29T20:34:26.028Z,16.10
2023-03-29T20:36:52.656Z,16.13
2023-03-29T20:39:19.297Z,16.27
2023-03-29T20:41:48.478Z,16.09
2023-03-29T20:44:15.359Z,16.21
2023-03-29T20:46:42.117Z,16.22
2023-03-29T20:49:08.681Z,16.15
2023-03-29T20:51:43.675Z,16.31
2023-03-29T20:54:10.353Z,16.50
2023-03-29T20:56:39.025Z,16.54
2023-03-29T20:59:07.105Z,16.67
2023-03-29T21:01:33.865Z,16.74
2023-03-29T21:04:00.621Z,16.82
2023-03-29T21:06:27.174Z,16.66
2023-03-29T21:08:53.675Z,16.69
2023-03-29T21:14:47.468Z,16.41
2023-03-29T21:17:14.008Z,16.24
2023-03-29T21:19:51.255Z,16.22
2023-03-29T21:22:20.736Z,16.15
2023-03-29T21:24:47.397Z,16.03
2023-03-29T21:27:13.904Z,16.07
2023-03-29T21:29:40.447Z,16.00
2023-03-29T21:32:07.018Z,15.96
2023-03-29T21:34:34.717Z,15.99
2023-03-29T21:37:01.383Z,15.83
2023-03-29T21:39:28.170Z,15.84
2023-03-29T21:41:54.661Z,15.88
2023-03-29T21:44:27.781Z,16.15
2023-03-29T21:46:54.335Z,16.34
2023-03-29T21:49:20.950Z,16.38
2023-03-29T21:51:47.460Z,16.31
2023-03-29T21:54:13.974Z,16.26
2023-03-29T21:56:40.489Z,16.37
2023-03-29T21:59:08.240Z,16.44
2023-03-29T22:01:34.746Z,16.50
2023-03-29T22:04:01.360Z,16.43
2023-03-29T22:06:27.845Z,16.56
2023-03-29T22:11:40.866Z,16.24
2023-03-29T22:14:07.400Z,16.00
2023-03-29T22:16:35.243Z,16.11
2023-03-29T22:19:01.726Z,16.23
2023-03-29T22:21:29.225Z,16.40
2023-03-29T22:23:58.499Z,16.29
2023-03-29T22:26:27.903Z,16.26
2023-03-29T22:28:54.595Z,16.29
2023-03-29T22:31:22.436Z,16.32
2023-03-29T22:33:49.284Z,16.46
2023-03-29T22:36:16.980Z,16.09
2023-03-29T22:38:45.467Z,15.81
2023-03-29T22:41:15.670Z,15.64
2023-03-29T22:43:42.203Z,15.63
2023-03-29T22:46:10.862Z,15.65
2023-03-29T22:48:37.595Z,15.85
2023-03-29T22:51:04.425Z,15.94
2023-03-29T22:53:59.258Z,16.01
2023-03-29T22:56:26.071Z,16.06
2023-03-29T22:58:52.670Z,16.13
2023-03-29T23:04:46.273Z,16.36
2023-03-29T23:19:14.921Z,15.99
2023-03-29T23:21:41.774Z,15.84
2023-03-29T23:25:28.999Z,15.57
2023-03-29T23:27:55.705Z,15.62
2023-03-29T23:30:22.412Z,15.52
2023-03-29T23:32:49.750Z,15.46
2023-03-29T23:35:16.573Z,15.46
2023-03-29T23:40:18.551Z,15.34
2023-03-29T23:42:45.994Z,15.45
2023-03-29T23:45:15.494Z,15.58
2023-03-29T23:47:43.130Z,15.35
2023-03-29T23:50:10.876Z,15.51
2023-03-29T23:52:37.585Z,15.45
2023-03-29T23:55:04.621Z,15.46
2023-03-29T23:57:31.117Z,15.41
2023-03-29T23:59:57.615Z,15.38
